Terminal Aerodrome Forecast
Issued by NWS

Home | Current Version | Previous Version | Text Only | Print | Product List | Glossary On
Versions: 1 2 3 4 5 6 7 8 9 10 11 12 13 14 15 16 17 18 19 20
000
FTUS43 KLSX 301300 AAA
TAFUIN
TAF AMD
KUIN 301327Z 3013/3112 15006KT P6SM SCT050 OVC080
      TEMPO 3014/3018 -RA
     FM302000 VRB05KT P6SM BKN060
     FM310200 35008KT P6SM BKN050
     FM310800 35019G28KT P6SM BKN030=

USA.gov is the U.S. government's official web portal to all federal, state and local government web resources and services.